CheckWX is a tool to help pilots better visualize weather data.  It is not intended as a substitute for an official pre-flight weather briefing.

10:39:40 UTC

KLCK METAR
Rickenbacker International Airport
Columbus, Ohio, USA
Current

25 mins ago

KLCK 141015Z AUTO 25005KT 10SM CLR 05/02 A3000 RMK AO2 T00530022
Observed
Oct-14 @ 10:15 UTC
Wind
  • 250° at 5 KTS
Visibility
10 SM
Flight Rules
VFR
Cloud Levels
  • Clear skies
Temperature
C / 41°F
Dewpoint
C / 36°F
Humidity
81%
Altimeter
30" Hg
Pressure
1015.92 hPa
Previous

45 mins ago

KLCK 140955Z AUTO 24005KT 10SM CLR 05/02 A3000 RMK AO2 T00480021
Observed
Oct-14 @ 09:55 UTC
Wind
  • 240° at 5 KTS
Visibility
10 SM
Flight Rules
VFR
Cloud Levels
  • Clear skies
Temperature
C / 41°F
Dewpoint
C / 36°F
Humidity
81%
Altimeter
30" Hg
Pressure
1015.92 hPa
Previous

1 hour ago

KLCK 140935Z AUTO 23006KT 10SM CLR 04/02 A2999 RMK AO2 T00430018
Observed
Oct-14 @ 09:35 UTC
Wind
  • 230° at 6 KTS
Visibility
10 SM
Flight Rules
VFR
Cloud Levels
  • Clear skies
Temperature
C / 39°F
Dewpoint
C / 36°F
Humidity
87%
Altimeter
29.99" Hg
Pressure
1015.62 hPa